Time;durP1;ratioP1;P1;durP2;ratioP2;P2;SDS_P1;SDS_P2;PMS_P1;PMS_P2;Temp;Humidity;BMP_temperature;BMP_pressure;BME280_temperature;BME280_humidity;BME280_pressure;Samples;Min_cycle;Max_cycle;Signal;HPM_P1;HPM_P2
2021/09/04 00:01:03;;;;;;;;;26.75;26.00;;;;;25.54;40.64;101012.69;5059849;28;46079;-55
2021/09/04 00:03:29;;;;;;;;;26.75;22.75;;;;;25.51;41.22;101010.25;5059587;28;45320;-54
2021/09/04 00:05:54;;;;;;;;;31.00;27.50;;;;;25.48;40.67;101002.38;5068837;28;45445;-55
2021/09/04 00:08:19;;;;;;;;;26.00;24.25;;;;;25.47;40.63;101008.72;5074927;28;45518;-53
2021/09/04 00:10:45;;;;;;;;;26.25;24.75;;;;;25.44;41.27;101004.44;5059652;28;46121;-54
2021/09/04 00:13:10;;;;;;;;;25.25;24.00;;;;;25.41;41.30;101001.97;5059434;28;45331;-54
2021/09/04 00:15:35;;;;;;;;;28.00;25.75;;;;;25.39;41.18;101005.75;5060696;28;45193;-55
2021/09/04 00:18:01;;;;;;;;;26.25;24.75;;;;;25.36;41.24;101003.22;5063206;28;45240;-54
2021/09/04 00:20:26;;;;;;;;;30.50;26.25;;;;;25.33;41.30;101009.69;5063025;28;45332;-54
2021/09/04 00:22:52;;;;;;;;;31.25;25.50;;;;;25.30;41.60;101007.25;5062811;28;45154;-54
2021/09/04 00:25:18;;;;;;;;;31.25;28.25;;;;;25.26;41.22;100995.84;5063381;28;45465;-54
2021/09/04 00:27:43;;;;;;;;;30.75;28.25;;;;;25.24;41.22;101003.16;5062626;28;45486;-54
2021/09/04 00:30:09;;;;;;;;;29.25;27.50;;;;;25.21;41.62;100998.00;5063300;28;46376;-54
2021/09/04 00:32:35;;;;;;;;;28.50;24.75;;;;;25.19;41.11;100996.41;5095493;27;45282;-54
2021/09/04 00:35:00;;;;;;;;;26.00;24.00;;;;;25.16;41.28;100997.50;5071206;28;45284;-53
2021/09/04 00:37:26;;;;;;;;;28.75;27.50;;;;;25.12;41.70;101004.06;5062570;28;46008;-53
2021/09/04 00:39:51;;;;;;;;;28.50;27.50;;;;;25.08;41.89;100989.97;5075197;28;46200;-53
2021/09/04 00:42:19;;;;;;;;;24.75;24.50;;;;;25.04;41.64;100987.59;5081136;28;45352;-54
2021/09/04 00:44:45;;;;;;;;;25.50;23.50;;;;;24.99;42.00;100988.81;5083227;28;45319;-54
2021/09/04 00:47:11;;;;;;;;;28.50;25.00;;;;;24.95;41.69;100992.66;5066159;28;45553;-54
2021/09/04 00:49:36;;;;;;;;;27.00;26.25;;;;;24.93;41.90;100989.25;5072907;27;47005;-54
2021/09/04 00:52:04;;;;;;;;;25.25;24.00;;;;;24.91;41.94;100993.84;5079780;27;45280;-54
2021/09/04 00:54:29;;;;;;;;;25.75;22.75;;;;;24.89;42.21;100990.44;5062782;28;45414;-54
2021/09/04 00:56:55;;;;;;;;;24.00;21.50;;;;;24.87;42.01;100992.38;5062122;28;45323;-54
2021/09/04 00:59:22;;;;;;;;;28.00;25.75;;;;;24.83;41.89;100988.19;5062656;28;45498;-54
2021/09/04 01:01:47;;;;;;;;;29.75;24.75;;;;;24.84;42.13;100984.50;5062418;28;45320;-54
2021/09/04 01:04:13;;;;;;;;;24.25;20.75;;;;;24.82;42.19;100992.69;5062571;28;45847;-54
2021/09/04 01:06:38;;;;;;;;;26.75;23.75;;;;;24.78;42.20;100988.50;5077168;28;45666;-54
2021/09/04 01:09:04;;;;;;;;;26.50;23.50;;;;;24.76;42.40;100986.88;5072335;28;45791;-52
2021/09/04 01:11:30;;;;;;;;;26.75;24.00;;;;;24.73;42.02;100995.16;5062364;28;45150;-52
2021/09/04 01:13:56;;;;;;;;;24.25;23.50;;;;;24.72;42.46;100990.75;5083510;27;45427;-53
2021/09/04 01:16:21;;;;;;;;;29.50;26.25;;;;;24.69;42.40;100997.22;5081375;27;45524;-53
2021/09/04 01:18:47;;;;;;;;;27.00;23.25;;;;;24.66;42.58;100994.72;5062260;28;46136;-55
2021/09/04 01:21:12;;;;;;;;;29.00;23.75;;;;;24.63;42.61;101003.81;5069907;27;45236;-54
2021/09/04 01:23:39;;;;;;;;;25.50;23.00;;;;;24.59;42.38;100998.75;5092139;27;45479;-55
2021/09/04 01:26:06;;;;;;;;;31.50;29.50;;;;;24.56;42.62;100990.94;5064686;28;45538;-54
2021/09/04 01:28:31;;;;;;;;;32.50;30.00;;;;;24.52;42.64;100986.75;5061868;28;46249;-54
2021/09/04 01:30:57;;;;;;;;;27.75;26.25;;;;;24.50;42.54;100992.19;5061869;28;45331;-52
2021/09/04 01:33:22;;;;;;;;;37.50;32.50;;;;;24.47;42.59;100989.75;5062300;28;45445;-53
2021/09/04 01:35:47;;;;;;;;;35.50;30.75;;;;;24.45;42.87;100988.97;5061918;28;45627;-53
2021/09/04 01:38:13;;;;;;;;;34.75;32.00;;;;;24.43;42.85;100988.25;5061942;28;45290;-54
2021/09/04 01:40:38;;;;;;;;;37.25;33.25;;;;;24.40;42.84;100985.75;5076812;28;45291;-51
2021/09/04 01:43:03;;;;;;;;;35.25;30.75;;;;;24.39;42.87;100986.72;5071468;28;45280;-53
2021/09/04 01:45:29;;;;;;;;;35.75;30.50;;;;;24.38;43.18;100979.63;5065596;28;45505;-54
2021/09/04 01:47:54;;;;;;;;;35.50;31.00;;;;;24.37;42.86;100988.66;5061840;28;46506;-53
2021/09/04 01:50:19;;;;;;;;;42.50;35.00;;;;;24.36;42.96;100989.63;5076765;28;45266;-53
2021/09/04 01:52:46;;;;;;;;;40.75;32.25;;;;;24.34;42.83;100982.53;5072414;28;45182;-53
2021/09/04 01:55:14;;;;;;;;;36.25;32.75;;;;;24.32;43.08;100983.59;5061777;28;45437;-54
2021/09/04 01:57:40;;;;;;;;;32.50;31.50;;;;;24.30;43.08;100991.75;5061321;28;46236;-54
2021/09/04 02:00:09;;;;;;;;;38.75;34.50;;;;;24.26;43.43;100979.50;5061400;28;45333;-54
2021/09/04 02:02:35;;;;;;;;;38.75;33.00;;;;;24.24;42.75;100981.44;5061606;28;45376;-53
2021/09/04 02:05:00;;;;;;;;;34.75;31.25;;;;;24.22;43.27;100977.16;5066333;27;45538;-54
2021/09/04 02:07:26;;;;;;;;;35.25;32.50;;;;;24.21;43.22;100980.78;5070514;28;46194;-55
2021/09/04 02:09:51;;;;;;;;;47.75;35.25;;;;;24.20;43.07;100979.94;5074825;28;45236;-54
2021/09/04 02:12:16;;;;;;;;;39.00;33.50;;;;;24.19;43.31;100983.59;5061373;28;45247;-53
2021/09/04 02:14:42;;;;;;;;;42.50;34.00;;;;;24.17;43.04;100974.75;5061288;28;45223;-54
2021/09/04 02:17:07;;;;;;;;;42.50;35.00;;;;;24.17;43.47;100977.44;5060075;28;46142;-54
2021/09/04 02:19:33;;;;;;;;;39.75;34.00;;;;;24.16;43.31;100981.09;5061252;28;45159;-54
2021/09/04 02:21:58;;;;;;;;;41.25;34.25;;;;;24.14;43.49;100981.19;5061377;28;45244;-53
2021/09/04 02:24:23;;;;;;;;;45.75;37.75;;;;;24.13;43.51;100984.00;5060868;28;45604;-53
2021/09/04 02:26:49;;;;;;;;;38.00;33.50;;;;;24.09;43.54;100977.13;5061113;28;46151;-54
2021/09/04 02:29:14;;;;;;;;;38.25;34.00;;;;;24.05;43.47;100979.16;5073004;28;45324;-54
2021/09/04 02:31:39;;;;;;;;;38.25;32.75;;;;;24.00;43.77;100979.44;5072744;28;45311;-54
2021/09/04 02:34:05;;;;;;;;;41.00;35.25;;;;;24.02;43.86;100972.16;5072322;27;45237;-54
2021/09/04 02:36:31;;;;;;;;;40.25;34.50;;;;;24.00;43.64;100979.44;5090214;27;45988;-54
2021/09/04 02:38:56;;;;;;;;;37.00;30.50;;;;;23.98;43.54;100981.38;5067157;28;45520;-54
2021/09/04 02:41:21;;;;;;;;;41.00;33.50;;;;;23.98;43.59;100984.06;5069802;28;45416;-53
2021/09/04 02:43:47;;;;;;;;;41.75;35.25;;;;;23.98;43.72;100978.69;5073891;28;45283;-56
2021/09/04 02:46:12;;;;;;;;;39.25;34.00;;;;;23.98;43.82;100980.53;5060886;28;45978;-54
2021/09/04 02:48:38;;;;;;;;;40.75;34.75;;;;;23.98;43.75;100983.19;5060706;28;45331;-54
2021/09/04 02:51:03;;;;;;;;;40.00;34.75;;;;;23.95;43.52;100978.91;5080918;28;45365;-53
2021/09/04 02:53:28;;;;;;;;;39.00;33.75;;;;;23.97;43.64;100982.31;5065157;28;45248;-56
2021/09/04 02:55:54;;;;;;;;;38.00;34.25;;;;;23.96;43.97;100977.06;5061188;28;45376;-54
2021/09/04 02:58:19;;;;;;;;;30.00;29.50;;;;;23.98;43.83;100989.41;5060440;28;45648;-54
2021/09/04 03:00:45;;;;;;;;;34.25;30.75;;;;;23.96;43.69;100977.94;5060824;28;45421;-54
2021/09/04 03:03:10;;;;;;;;;37.25;32.50;;;;;23.94;43.90;100974.50;5060542;28;45241;-54
2021/09/04 03:05:36;;;;;;;;;34.00;32.25;;;;;23.96;44.01;100986.00;5062542;28;45961;-54
2021/09/04 03:08:02;;;;;;;;;36.00;31.75;;;;;23.95;44.03;100981.59;5074220;28;45162;-54
2021/09/04 03:10:28;;;;;;;;;42.25;33.50;;;;;23.96;44.18;100990.47;5060678;28;45181;-55
2021/09/04 03:12:53;;;;;;;;;32.25;30.00;;;;;23.94;44.07;100982.53;5059997;28;45231;-54
2021/09/04 03:15:19;;;;;;;;;37.00;32.50;;;;;23.94;44.14;100989.75;5060730;28;45383;-54
2021/09/04 03:17:44;;;;;;;;;38.00;33.75;;;;;23.93;44.49;100982.66;5065150;27;45351;-54
2021/09/04 03:20:10;;;;;;;;;33.25;31.75;;;;;23.92;44.15;100968.34;5092202;27;45337;-54
2021/09/04 03:22:36;;;;;;;;;30.00;28.50;;;;;23.92;44.13;100972.88;5064548;28;45520;-55
2021/09/04 03:25:03;;;;;;;;;37.00;32.75;;;;;23.90;44.09;100970.28;5060232;28;46067;-54
2021/09/04 03:27:29;;;;;;;;;38.25;33.00;;;;;23.91;44.28;100973.81;5058592;28;45392;-54
2021/09/04 03:29:54;;;;;;;;;37.00;30.25;;;;;23.89;44.21;100970.38;5060347;28;45270;-56
2021/09/04 03:32:20;;;;;;;;;33.50;31.50;;;;;23.90;44.30;100972.06;5060271;28;45253;-55
2021/09/04 03:34:45;;;;;;;;;34.00;30.25;;;;;23.84;44.18;100965.31;5060172;28;45221;-55
2021/09/04 03:37:10;;;;;;;;;34.50;31.00;;;;;23.84;44.41;100970.69;5059972;28;45280;-55
2021/09/04 03:39:36;;;;;;;;;35.50;32.00;;;;;23.82;44.20;100973.47;5069774;28;45238;-54
2021/09/04 03:42:01;;;;;;;;;42.75;35.25;;;;;23.84;44.21;100984.09;5066355;28;45221;-55
2021/09/04 03:44:27;;;;;;;;;38.50;33.00;;;;;23.81;44.52;100981.59;5072608;28;46044;-54
2021/09/04 03:46:52;;;;;;;;;38.75;33.25;;;;;23.81;44.20;100984.28;5059962;28;45240;-55
2021/09/04 03:49:17;;;;;;;;;39.50;35.25;;;;;23.80;44.36;100975.38;5066310;28;45253;-55
2021/09/04 03:51:43;;;;;;;;;34.50;30.75;;;;;23.79;44.59;100978.19;5078662;27;45426;-55
2021/09/04 03:54:08;;;;;;;;;36.50;33.75;;;;;23.77;44.61;100975.59;5060092;28;45941;-55
2021/09/04 03:56:34;;;;;;;;;36.25;34.00;;;;;23.78;44.46;100984.50;5059761;28;45295;-54
2021/09/04 03:58:59;;;;;;;;;37.50;33.00;;;;;23.78;44.47;100976.44;5059823;28;45379;-56
2021/09/04 04:01:25;;;;;;;;;41.75;34.50;;;;;23.76;44.45;100970.31;5087443;27;45305;-55
2021/09/04 04:03:50;;;;;;;;;36.25;32.50;;;;;23.72;44.70;100972.34;5087336;27;46020;-55
2021/09/04 04:06:15;;;;;;;;;34.50;32.25;;;;;23.74;44.76;100970.41;5084635;27;45400;-55
2021/09/04 04:08:41;;;;;;;;;30.25;29.25;;;;;23.74;44.70;100966.88;5060071;28;45717;-55
2021/09/04 04:11:08;;;;;;;;;32.00;29.75;;;;;23.73;44.70;100957.13;5059687;28;45382;-55
2021/09/04 04:13:34;;;;;;;;;32.25;30.50;;;;;23.69;44.73;100951.09;5074806;27;46303;-55
2021/09/04 04:16:00;;;;;;;;;32.75;30.50;;;;;23.70;44.90;100953.66;5084589;27;45424;-55
2021/09/04 04:18:25;;;;;;;;;32.25;31.00;;;;;23.69;44.88;100948.41;5059846;28;45513;-55
2021/09/04 04:20:51;;;;;;;;;31.50;30.00;;;;;23.66;44.96;100949.47;5059500;28;45173;-54
2021/09/04 04:23:16;;;;;;;;;35.25;29.00;;;;;23.66;45.00;100956.66;5059370;28;45198;-53
2021/09/04 04:25:41;;;;;;;;;34.75;30.75;;;;;23.65;45.01;100960.31;5059463;28;45212;-55
2021/09/04 04:28:07;;;;;;;;;32.25;30.25;;;;;23.63;44.94;100954.19;5059539;28;45282;-54
2021/09/04 04:30:32;;;;;;;;;33.00;31.00;;;;;23.61;45.16;100954.28;5059359;28;45492;-54
2021/09/04 04:32:58;;;;;;;;;28.00;25.75;;;;;23.62;45.06;100964.06;5059638;28;46015;-55
2021/09/04 04:35:23;;;;;;;;;32.00;30.00;;;;;23.58;45.04;100962.50;5059294;28;45288;-54
2021/09/04 04:37:48;;;;;;;;;33.00;30.00;;;;;23.59;44.99;100966.06;5068536;27;45242;-54
2021/09/04 04:40:14;;;;;;;;;31.75;29.50;;;;;23.58;45.29;100962.50;5072864;28;45370;-55
2021/09/04 04:42:39;;;;;;;;;36.50;31.00;;;;;23.55;45.30;100957.38;5064994;28;46086;-53
2021/09/04 04:45:06;;;;;;;;;33.50;28.50;;;;;23.56;45.19;100967.13;5066512;28;45588;-52
2021/09/04 04:47:32;;;;;;;;;31.50;29.50;;;;;23.56;45.32;100966.25;5059508;28;45279;-54
2021/09/04 04:49:58;;;;;;;;;35.25;30.50;;;;;23.54;45.24;100969.91;5070165;28;45299;-54
2021/09/04 04:52:24;;;;;;;;;32.25;28.75;;;;;23.53;45.12;100970.88;5066099;28;45318;-54
2021/09/04 04:54:49;;;;;;;;;33.75;29.75;;;;;23.53;45.16;100970.00;5066039;28;45385;-54
2021/09/04 04:57:15;;;;;;;;;28.50;25.50;;;;;23.51;45.36;100971.94;5059129;28;45164;-54
2021/09/04 04:59:40;;;;;;;;;34.75;30.00;;;;;23.50;45.06;100971.06;5059179;28;45269;-54
2021/09/04 05:02:05;;;;;;;;;32.00;29.25;;;;;23.47;45.42;100968.59;5060733;28;46308;-54
2021/09/04 05:04:31;;;;;;;;;33.50;29.50;;;;;23.47;45.36;100973.97;5062572;28;45269;-54
2021/09/04 05:06:56;;;;;;;;;37.00;32.25;;;;;23.48;45.28;100967.66;5080160;28;45180;-54
2021/09/04 05:09:21;;;;;;;;;30.25;29.50;;;;;23.47;45.10;100965.03;5069620;28;45238;-54
2021/09/04 05:11:47;;;;;;;;;32.75;27.00;;;;;23.45;45.58;100972.34;5062004;28;46042;-53
2021/09/04 05:14:12;;;;;;;;;29.75;27.75;;;;;23.44;45.28;100970.63;5089373;27;45186;-54
2021/09/04 05:16:39;;;;;;;;;29.50;27.00;;;;;23.42;45.36;100970.72;5069483;28;45209;-54
2021/09/04 05:19:04;;;;;;;;;31.50;26.75;;;;;23.43;45.57;100977.78;5069263;28;45292;-55
2021/09/04 05:21:30;;;;;;;;;28.75;27.25;;;;;23.42;45.89;100972.53;5047771;28;46166;-54
2021/09/04 05:23:55;;;;;;;;;31.75;30.00;;;;;23.40;45.47;100969.94;5062021;28;45300;-53
2021/09/04 05:26:21;;;;;;;;;32.25;28.50;;;;;23.40;45.67;100967.28;5062661;28;45303;-54
2021/09/04 05:28:46;;;;;;;;;30.50;29.50;;;;;23.40;45.63;100974.47;5074360;28;45587;-54
2021/09/04 05:31:11;;;;;;;;;30.75;28.00;;;;;23.40;45.96;100979.81;5081153;28;46002;-54
2021/09/04 05:33:37;;;;;;;;;31.00;29.00;;;;;23.39;45.77;100978.94;5082364;28;45229;-54
2021/09/04 05:36:03;;;;;;;;;25.00;24.75;;;;;23.39;46.03;100981.63;5062327;28;45304;-54
2021/09/04 05:38:28;;;;;;;;;35.25;30.25;;;;;23.37;46.27;100975.53;5062222;28;45400;-54
2021/09/04 05:40:53;;;;;;;;;29.00;28.25;;;;;23.34;46.33;100976.56;5077179;28;45675;-53
2021/09/04 05:43:20;;;;;;;;;28.25;27.50;;;;;23.34;46.29;100981.06;5073408;28;45353;-53
2021/09/04 05:45:46;;;;;;;;;24.75;24.50;;;;;23.31;46.38;100984.81;5063515;28;45227;-53
2021/09/04 05:48:12;;;;;;;;;28.00;23.25;;;;;23.29;46.17;100986.72;5060678;28;45261;-54
2021/09/04 05:50:37;;;;;;;;;23.25;20.50;;;;;23.24;46.77;100979.94;5077800;28;46171;-53
2021/09/04 05:53:02;;;;;;;;;20.25;18.75;;;;;23.24;46.83;100988.00;5070375;28;45195;-54
2021/09/04 05:55:28;;;;;;;;;22.25;19.75;;;;;23.21;46.84;100987.22;5061720;28;45224;-52
2021/09/04 05:57:53;;;;;;;;;19.50;19.50;;;;;23.19;47.06;100989.16;5061522;28;45477;-53
2021/09/04 06:00:19;;;;;;;;;19.00;16.75;;;;;23.13;47.22;100983.25;5061468;28;46237;-53
2021/09/04 06:02:44;;;;;;;;;15.50;15.00;;;;;23.09;47.29;100987.09;5061857;28;45264;-52
2021/09/04 06:05:10;;;;;;;;;15.75;14.75;;;;;23.11;47.12;100993.25;5064053;28;45458;-52
2021/09/04 06:07:35;;;;;;;;;20.25;18.00;;;;;23.06;47.15;100993.53;5082135;28;45480;-53
2021/09/04 06:10:01;;;;;;;;;15.50;15.00;;;;;23.07;47.29;100994.38;5061637;28;46258;-54
2021/09/04 06:12:26;;;;;;;;;20.75;20.00;;;;;23.03;47.50;100991.91;5061184;28;45299;-50
2021/09/04 06:14:51;;;;;;;;;14.00;14.00;;;;;23.01;47.25;101001.84;5060679;28;45679;-54
2021/09/04 06:17:17;;;;;;;;;18.75;16.25;;;;;22.98;47.29;101001.16;5061434;28;45366;-53
2021/09/04 06:19:43;;;;;;;;;16.50;15.50;;;;;22.95;47.67;101004.91;5060961;28;46161;-54
2021/09/04 06:22:08;;;;;;;;;15.75;15.75;;;;;22.94;47.62;100999.66;5042834;28;45330;-49
2021/09/04 06:24:33;;;;;;;;;19.50;19.00;;;;;22.93;48.00;101004.16;5074811;28;45293;-52
2021/09/04 06:26:59;;;;;;;;;18.50;17.00;;;;;22.91;47.79;101002.53;5071454;28;45407;-52
2021/09/04 06:29:24;;;;;;;;;14.75;14.50;;;;;22.89;47.91;101007.97;5076263;27;45445;-52
2021/09/04 06:31:50;;;;;;;;;16.00;16.00;;;;;22.86;47.71;101010.84;5061354;28;45263;-53
2021/09/04 06:34:15;;;;;;;;;23.75;22.25;;;;;22.85;47.67;101014.47;5061155;28;45319;-55
2021/09/04 06:36:41;;;;;;;;;18.75;16.75;;;;;22.83;48.16;101011.00;5071921;28;45650;-53
2021/09/04 06:39:06;;;;;;;;;23.75;22.25;;;;;22.80;48.18;101005.84;5072324;28;46037;-54
2021/09/04 06:41:31;;;;;;;;;23.50;21.75;;;;;22.79;48.25;101013.03;5069020;28;45220;-53
2021/09/04 06:43:57;;;;;;;;;19.25;18.00;;;;;22.77;48.68;101004.22;5073978;28;45371;-53
2021/09/04 06:46:22;;;;;;;;;20.25;19.25;;;;;22.73;48.43;101006.22;5060951;28;45240;-52
2021/09/04 06:48:47;;;;;;;;;21.75;21.50;;;;;22.75;48.31;101014.16;5061732;28;46231;-53
2021/09/04 06:51:13;;;;;;;;;24.00;23.25;;;;;22.78;48.42;101021.16;5081287;28;45314;-53
2021/09/04 06:53:38;;;;;;;;;25.00;24.75;;;;;22.77;48.82;101020.31;5063838;28;45316;-53
2021/09/04 06:56:04;;;;;;;;;23.75;22.00;;;;;22.80;48.79;101013.91;5060946;28;45214;-53
2021/09/04 06:58:29;;;;;;;;;23.75;22.25;;;;;22.76;48.84;101005.19;5060288;28;45324;-56
2021/09/04 07:00:57;;;;;;;;;26.25;23.75;;;;;22.77;48.69;101006.91;5070125;28;45531;-56
2021/09/04 07:03:23;;;;;;;;;23.25;22.25;;;;;22.80;48.79;101012.06;5079868;27;45392;-52
2021/09/04 07:05:48;;;;;;;;;23.00;22.75;;;;;22.80;48.69;101017.41;5068756;27;45613;-53
2021/09/04 07:08:14;;;;;;;;;22.25;21.25;;;;;22.83;49.00;101019.03;5070534;28;46159;-57
2021/09/04 07:10:39;;;;;;;;;22.00;19.00;;;;;22.87;49.25;101023.28;5074180;28;45370;-55
2021/09/04 07:13:04;;;;;;;;;23.25;21.25;;;;;22.89;48.93;101019.56;5062907;27;45361;-55
2021/09/04 07:15:30;;;;;;;;;23.00;21.25;;;;;22.92;49.09;101014.94;5059157;28;45885;-54
2021/09/04 07:17:55;;;;;;;;;19.75;19.75;;;;;22.95;48.87;101017.44;5072252;28;46375;-52
2021/09/04 07:20:21;;;;;;;;;22.50;21.25;;;;;22.98;49.33;101009.19;5075517;28;45157;-53
2021/09/04 07:22:46;;;;;;;;;25.25;20.75;;;;;23.02;49.12;101016.97;5062842;28;45321;-52
2021/09/04 07:25:12;;;;;;;;;25.25;23.25;;;;;23.05;49.23;101011.41;5080367;28;45456;-53
2021/09/04 07:27:38;;;;;;;;;21.25;20.50;;;;;23.10;49.25;101021.00;5060538;28;46893;-52
2021/09/04 07:30:03;;;;;;;;;19.00;18.75;;;;;23.13;49.22;101024.34;5060417;28;45414;-52
2021/09/04 07:32:29;;;;;;;;;20.75;20.25;;;;;23.15;48.92;101021.56;5060114;28;45171;-48
2021/09/04 07:34:56;;;;;;;;;22.50;20.75;;;;;23.21;49.31;101015.84;5060126;28;45383;-49
2021/09/04 07:37:21;;;;;;;;;25.25;24.25;;;;;23.25;49.52;101025.41;5059588;28;46233;-52
2021/09/04 07:39:46;;;;;;;;;22.25;22.25;;;;;23.28;49.08;101025.22;5071458;28;45307;-50
2021/09/04 07:42:12;;;;;;;;;22.50;19.00;;;;;23.32;49.32;101025.88;5066383;28;45547;-51
2021/09/04 07:44:37;;;;;;;;;24.50;21.75;;;;;23.37;49.19;101026.47;5078760;28;45394;-56
2021/09/04 07:47:03;;;;;;;;;25.75;23.50;;;;;23.40;49.52;101028.09;5077540;28;46008;-54
2021/09/04 07:49:28;;;;;;;;;23.75;21.25;;;;;23.46;49.79;101027.66;5067716;28;45261;-60
2021/09/04 07:51:55;;;;;;;;;21.00;19.25;;;;;23.52;49.72;101028.16;5082237;27;45506;-60
2021/09/04 07:54:21;;;;;;;;;24.25;23.50;;;;;23.60;49.78;101029.50;5086469;27;45233;-62
2021/09/04 07:56:46;;;;;;;;;22.00;20.25;;;;;23.67;48.48;101031.66;5072116;28;45299;-60
2021/09/04 07:59:12;;;;;;;;;22.50;20.25;;;;;23.74;47.99;101024.06;5058648;28;45355;-48
2021/09/04 08:01:37;;;;;;;;;23.75;21.50;;;;;23.80;48.06;101018.31;5059826;28;45209;-47
2021/09/04 08:04:03;;;;;;;;;17.00;15.00;;;;;23.94;48.36;101032.69;5067440;28;45163;-47
2021/09/04 08:06:29;;;;;;;;;17.00;15.00;;;;;24.01;48.30;101031.28;5047328;28;45397;-48
2021/09/04 08:08:55;;;;;;;;;20.00;18.25;;;;;24.07;48.57;101022.84;5064234;28;45344;-45
2021/09/04 08:11:20;;;;;;;;;22.50;19.50;;;;;24.15;48.71;101025.88;5089255;27;45383;-48
2021/09/04 08:13:46;;;;;;;;;17.50;17.00;;;;;24.22;48.31;101026.31;5071014;28;45330;-47
2021/09/04 08:16:11;;;;;;;;;16.25;12.75;;;;;24.29;48.73;101027.63;5059660;28;46056;-51
2021/09/04 08:18:37;;;;;;;;;17.50;17.50;;;;;24.37;48.53;101034.31;5059487;28;45309;-58
2021/09/04 08:21:02;;;;;;;;;24.25;19.75;;;;;24.43;48.56;101033.91;5059480;28;45530;-57
2021/09/04 08:23:27;;;;;;;;;22.75;19.75;;;;;24.52;48.58;101027.88;5059315;28;45362;-59
2021/09/04 08:25:53;;;;;;;;;22.75;18.75;;;;;24.62;48.32;101034.34;5059143;28;45335;-59
2021/09/04 08:28:18;;;;;;;;;29.25;22.50;;;;;24.71;48.48;101029.34;5059360;28;45309;-59
2021/09/04 08:30:44;;;;;;;;;25.50;23.50;;;;;24.79;48.41;101027.84;5059392;28;45316;-57
2021/09/04 08:33:09;;;;;;;;;24.75;22.50;;;;;24.87;48.05;101038.03;5059280;28;45504;-58
2021/09/04 08:35:34;;;;;;;;;25.75;24.00;;;;;24.97;48.29;101044.50;5058954;28;45347;-57
2021/09/04 08:38:06;;;;;;;;;22.00;21.75;;;;;25.04;48.18;101038.69;5062301;28;45189;-59
2021/09/04 08:40:32;;;;;;;;;24.00;20.75;;;;;25.15;48.22;101041.47;5076294;28;45284;-59
2021/09/04 08:42:59;;;;;;;;;21.50;19.00;;;;;25.23;48.35;101048.97;5070970;28;45476;-58
2021/09/04 08:45:26;;;;;;;;;24.50;22.00;;;;;25.31;48.21;101052.84;5067028;28;46393;-58
2021/09/04 08:47:52;;;;;;;;;17.25;17.00;;;;;25.38;48.67;101053.28;5061717;28;45408;-58
2021/09/04 08:50:19;;;;;;;;;21.75;20.00;;;;;25.45;48.01;101049.19;5074780;28;45956;-52
2021/09/04 08:52:44;;;;;;;;;21.00;20.25;;;;;25.52;48.04;101055.00;5091707;27;45332;-59
2021/09/04 08:55:10;;;;;;;;;22.75;19.75;;;;;25.56;48.06;101050.22;5082908;27;46109;-57
2021/09/04 08:57:36;;;;;;;;;50.50;39.50;;;;;25.64;48.37;101054.09;5061326;28;45412;-58
2021/09/04 09:00:01;;;;;;;;;51.75;41.75;;;;;25.71;47.59;101059.91;5066859;27;45500;-58
2021/09/04 09:02:28;;;;;;;;;20.75;18.50;;;;;25.76;48.29;101065.81;5094231;27;46094;-57
2021/09/04 09:05:01;;;;;;;;;20.50;19.00;;;;;25.82;48.13;101067.16;5066469;28;46322;-58
2021/09/04 09:07:44;;;;;;;;;16.25;15.25;;;;;25.89;48.01;101067.59;5084772;27;45284;-56
2021/09/04 09:10:32;;;;;;;;;18.75;17.75;;;;;25.96;48.07;101071.53;5075627;28;45364;-58
2021/09/04 09:12:57;;;;;;;;;367.20;338.00;;;;;26.02;48.23;101075.59;5090817;27;45424;-57
2021/09/04 09:15:29;;;;;;;;;14.25;13.25;;;;;26.07;47.59;101074.31;5073430;28;45937;-56
2021/09/04 09:18:03;;;;;;;;;13.25;12.50;;;;;26.13;48.03;101069.47;5060557;28;45282;-57
2021/09/04 09:20:30;;;;;;;;;14.50;12.00;;;;;26.17;47.29;101069.09;5060870;28;45396;-57
2021/09/04 09:23:13;;;;;;;;;13.75;12.25;;;;;26.25;47.21;101073.91;5061791;28;45458;-57
2021/09/04 09:25:45;;;;;;;;;11.50;11.00;;;;;26.32;47.28;101079.72;5066922;28;46076;-55
2021/09/04 09:28:12;;;;;;;;;12.00;12.00;;;;;26.39;47.17;101080.94;5070674;28;45252;-55
2021/09/04 09:30:43;;;;;;;;;13.50;13.25;;;;;26.45;46.97;101077.78;5069408;28;45703;-57
2021/09/04 09:33:13;;;;;;;;;9.50;9.25;;;;;26.52;47.77;101086.28;5070624;28;45245;-57
2021/09/04 09:35:40;;;;;;;;;13.00;13.00;;;;;26.58;46.95;101075.03;5071300;28;46342;-57
2021/09/04 09:38:08;;;;;;;;;12.00;10.75;;;;;26.63;46.85;101089.00;5069806;28;46367;-57
2021/09/04 09:40:34;;;;;;;;;14.00;11.75;;;;;26.68;46.62;101080.53;5067726;28;45494;-57
2021/09/04 09:42:59;;;;;;;;;10.25;10.25;;;;;26.73;47.24;101076.56;5068923;28;45438;-57
2021/09/04 09:45:48;;;;;;;;;14.50;12.25;;;;;26.81;46.85;101075.13;5070400;28;46242;-57
2021/09/04 09:48:18;;;;;;;;;12.25;12.25;;;;;26.87;47.41;101067.41;5071339;28;45850;-58
2021/09/04 09:50:43;;;;;;;;;9.75;8.75;;;;;26.95;46.53;101068.63;5072522;28;45328;-57
2021/09/04 09:53:09;;;;;;;;;10.00;8.75;;;;;27.01;46.49;101070.84;5071072;28;45735;-58
2021/09/04 09:55:35;;;;;;;;;9.00;9.00;;;;;27.09;46.98;101068.41;5069436;28;45454;-57
2021/09/04 09:58:01;;;;;;;;;12.25;11.50;;;;;27.17;47.21;101063.25;5069826;28;45491;-58
2021/09/04 10:00:28;;;;;;;;;9.00;8.50;;;;;27.25;46.61;101066.19;5071218;28;45587;-57
2021/09/04 10:02:59;;;;;;;;;14.25;14.25;;;;;27.33;46.21;101056.63;5069363;28;45596;-57
2021/09/04 10:05:29;;;;;;;;;11.00;10.00;;;;;27.41;46.64;101056.91;5068352;28;46143;-57
2021/09/04 10:07:57;;;;;;;;;8.75;8.75;;;;;27.49;46.67;101056.28;5069242;28;45531;-57
2021/09/04 10:10:28;;;;;;;;;9.50;9.50;;;;;27.60;46.68;101060.78;5069622;28;45984;-52
2021/09/04 10:12:54;;;;;;;;;10.50;10.50;;;;;27.70;46.03;101061.78;5071121;28;45595;-56
2021/09/04 10:15:23;;;;;;;;;11.25;10.25;;;;;27.80;46.12;101062.75;5068652;28;46098;-55
2021/09/04 10:17:51;;;;;;;;;10.25;9.25;;;;;27.93;46.84;101061.72;5072410;27;45422;-52
2021/09/04 10:20:17;;;;;;;;;10.75;10.50;;;;;28.00;46.14;101055.69;5074042;28;45422;-50
2021/09/04 10:22:44;;;;;;;;;9.75;9.75;;;;;28.10;46.48;101055.81;5077438;28;45232;-49
2021/09/04 10:25:18;;;;;;;;;10.50;8.75;;;;;28.21;46.07;101054.88;5059794;28;46909;-46
2021/09/04 10:27:48;;;;;;;;;8.25;8.25;;;;;28.32;46.10;101054.84;5060667;28;45356;-47
2021/09/04 10:30:24;;;;;;;;;9.00;8.00;;;;;28.48;45.98;101057.09;5061116;28;45315;-50
2021/09/04 10:33:07;;;;;;;;;8.25;8.25;;;;;28.66;46.13;101059.22;5068318;28;45427;-49
2021/09/04 10:35:41;;;;;;;;;9.75;8.50;;;;;28.86;45.63;101049.41;5070476;28;45419;-50
2021/09/04 10:38:19;;;;;;;;;9.75;8.25;;;;;29.07;45.89;101062.91;5069791;28;45353;-50
2021/09/04 10:40:51;;;;;;;;;8.75;7.50;;;;;29.27;45.81;101052.16;5066944;28;45495;-47
2021/09/04 10:43:18;;;;;;;;;11.00;8.00;;;;;29.47;45.37;101053.97;5066287;28;45508;-48
2021/09/04 10:45:46;;;;;;;;;12.75;11.00;;;;;29.69;45.18;101059.31;5069739;28;45342;-51
2021/09/04 10:48:20;;;;;;;;;11.25;8.75;;;;;29.92;45.19;101049.94;5067670;28;45201;-50
2021/09/04 10:51:01;;;;;;;;;10.00;9.00;;;;;30.18;45.12;101049.41;5070368;28;45615;-52
2021/09/04 10:53:52;;;;;;;;;6.25;6.25;;;;;30.50;45.39;101052.84;5069801;28;45397;-50
2021/09/04 10:56:25;;;;;;;;;11.00;8.00;;;;;30.80;45.08;101058.06;5070448;28;46505;-49
2021/09/04 10:58:51;;;;;;;;;8.75;8.75;;;;;31.09;45.00;101046.31;5070175;28;45241;-49
2021/09/04 11:01:24;;;;;;;;;9.50;9.50;;;;;31.45;44.43;101056.41;5068344;28;45281;-49
2021/09/04 11:03:52;;;;;;;;;4.50;4.50;;;;;31.77;44.37;101055.97;5070363;28;45312;-50
2021/09/04 11:06:19;;;;;;;;;9.75;7.50;;;;;32.11;44.25;101057.13;5074831;27;45670;-51